Time;durP1;ratioP1;P1;durP2;ratioP2;P2;SDS_P1;SDS_P2;PMS_P1;PMS_P2;Temp;Humidity;BMP_temperature;BMP_pressure;BME280_temperature;BME280_humidity;BME280_pressure;Samples;Min_cycle;Max_cycle;Signal;HPM_P1;HPM_P2
2021/09/13 00:01:22;;;;;;;14.82;7.97;;;16.50;99.90;;;;;;5078764;28;20126;-86
2021/09/13 00:03:47;;;;;;;11.18;8.23;;;16.50;99.90;;;;;;5060480;28;20064;-86
2021/09/13 00:06:13;;;;;;;11.57;7.95;;;16.50;99.90;;;;;;5060488;28;20123;-86
2021/09/13 00:08:38;;;;;;;13.05;8.07;;;16.50;99.90;;;;;;5078940;28;20111;-84
2021/09/13 00:11:04;;;;;;;13.50;8.25;;;16.50;99.90;;;;;;5060580;28;20029;-84
2021/09/13 00:13:30;;;;;;;10.93;7.47;;;16.40;99.90;;;;;;5060583;28;20029;-84
2021/09/13 00:15:55;;;;;;;10.35;7.88;;;16.40;99.90;;;;;;5060368;28;20126;-83
2021/09/13 00:18:21;;;;;;;10.00;7.25;;;16.50;99.90;;;;;;5078828;28;20028;-83
2021/09/13 00:20:47;;;;;;;13.45;7.10;;;16.50;99.90;;;;;;5060513;28;20029;-83
2021/09/13 00:23:12;;;;;;;11.82;8.35;;;16.50;99.90;;;;;;5060839;28;20033;-84
2021/09/13 00:25:38;;;;;;;11.15;7.90;;;16.40;99.90;;;;;;5078757;28;20078;-84
2021/09/13 00:28:04;;;;;;;12.57;7.72;;;16.40;99.90;;;;;;5060715;28;20028;-84
2021/09/13 00:30:29;;;;;;;9.77;7.13;;;16.40;99.90;;;;;;5058389;28;20051;-83
2021/09/13 00:32:55;;;;;;;11.23;8.10;;;16.40;99.90;;;;;;5057619;28;20461;-83
2021/09/13 00:35:24;;;;;;;11.07;7.03;;;16.30;99.90;;;;;;5058264;28;20028;-83
2021/09/13 00:37:50;;;;;;;11.07;7.78;;;16.30;99.90;;;;;;5056963;28;20036;-84
2021/09/13 00:40:16;;;;;;;13.32;8.82;;;16.30;99.90;;;;;;5056122;28;20538;-84
2021/09/13 00:42:41;;;;;;;14.50;8.70;;;16.30;99.90;;;;;;5074443;28;20107;-87
2021/09/13 00:45:08;;;;;;;14.13;8.90;;;16.30;99.90;;;;;;5056587;28;20695;-87
2021/09/13 00:47:33;;;;;;;12.40;8.15;;;16.30;99.90;;;;;;5056771;28;20421;-87
2021/09/13 00:50:00;;;;;;;10.25;7.63;;;16.30;99.90;;;;;;5056048;28;20219;-87
2021/09/13 00:52:26;;;;;;;14.05;8.85;;;16.30;99.90;;;;;;5056413;28;20051;-86
2021/09/13 00:54:52;;;;;;;10.45;7.38;;;16.30;99.90;;;;;;5056426;28;20036;-86
2021/09/13 00:57:18;;;;;;;13.98;8.05;;;16.30;99.90;;;;;;5056430;28;20070;-87
2021/09/13 00:59:43;;;;;;;13.63;7.90;;;16.30;99.90;;;;;;5073688;28;20473;-86
2021/09/13 01:02:09;;;;;;;10.80;7.60;;;16.30;99.90;;;;;;5056228;28;20540;-87
2021/09/13 01:04:35;;;;;;;9.13;7.10;;;16.30;99.90;;;;;;5056153;28;20044;-87
2021/09/13 01:07:01;;;;;;;11.48;7.05;;;16.40;99.90;;;;;;5056271;28;20032;-87
2021/09/13 01:09:26;;;;;;;11.90;7.85;;;16.40;99.90;;;;;;5055759;28;20034;-86
2021/09/13 01:11:53;;;;;;;16.35;8.15;;;16.40;99.90;;;;;;5056126;28;20032;-86
2021/09/13 01:14:19;;;;;;;10.45;7.30;;;16.30;99.90;;;;;;5056227;28;20039;-87
2021/09/13 01:16:46;;;;;;;11.57;7.47;;;16.30;99.90;;;;;;5056262;28;20137;-86
2021/09/13 01:19:12;;;;;;;10.82;7.50;;;16.30;99.90;;;;;;5055709;28;20119;-87
2021/09/13 01:21:40;;;;;;;10.02;6.32;;;16.30;99.90;;;;;;5055778;28;20055;-86
2021/09/13 01:24:09;;;;;;;9.93;6.72;;;16.30;99.90;;;;;;5055822;28;20063;-84
2021/09/13 01:26:34;;;;;;;9.93;6.40;;;16.30;99.90;;;;;;5055836;28;20082;-84
2021/09/13 01:29:00;;;;;;;9.30;6.47;;;16.20;99.90;;;;;;5055213;28;20021;-84
2021/09/13 01:31:26;;;;;;;8.90;5.22;;;16.20;99.90;;;;;;5055479;28;20028;-84
2021/09/13 01:33:52;;;;;;;10.90;5.93;;;16.20;99.90;;;;;;5073622;28;20434;-84
2021/09/13 01:36:17;;;;;;;9.23;5.65;;;16.20;99.90;;;;;;5055636;28;20119;-84
2021/09/13 01:38:43;;;;;;;8.63;5.70;;;16.10;99.90;;;;;;5055576;28;20025;-84
2021/09/13 01:41:08;;;;;;;8.30;5.93;;;16.10;99.90;;;;;;5054894;28;20021;-84
2021/09/13 01:43:34;;;;;;;8.75;5.75;;;16.00;99.90;;;;;;5055154;28;20515;-84
2021/09/13 01:46:00;;;;;;;8.80;5.88;;;16.00;99.90;;;;;;5055620;28;20174;-84
2021/09/13 01:48:25;;;;;;;8.32;5.32;;;16.00;99.90;;;;;;5073240;28;20161;-84
2021/09/13 01:50:51;;;;;;;8.15;5.45;;;15.90;99.90;;;;;;5054849;28;20354;-87
2021/09/13 01:53:17;;;;;;;8.10;5.78;;;16.00;99.90;;;;;;5055399;28;20095;-86
2021/09/13 01:55:42;;;;;;;9.75;6.28;;;15.90;99.90;;;;;;5055254;28;20036;-86
2021/09/13 01:58:08;;;;;;;9.10;5.50;;;15.90;99.90;;;;;;5055196;28;20028;-87
2021/09/13 02:00:34;;;;;;;8.32;5.40;;;15.90;99.90;;;;;;5054705;28;20025;-87
2021/09/13 02:02:59;;;;;;;9.05;5.82;;;15.90;99.90;;;;;;5054984;28;20027;-86
2021/09/13 02:05:25;;;;;;;8.60;5.72;;;15.90;99.90;;;;;;5054991;28;20025;-87
2021/09/13 02:07:50;;;;;;;8.75;5.70;;;15.90;99.90;;;;;;5055188;28;20389;-86
2021/09/13 02:10:16;;;;;;;8.60;5.70;;;15.90;99.90;;;;;;5054654;28;20447;-86
2021/09/13 02:12:42;;;;;;;8.77;6.18;;;15.80;99.90;;;;;;5054667;28;20476;-87
2021/09/13 02:15:08;;;;;;;8.60;6.07;;;15.80;99.90;;;;;;5054885;28;20024;-87
2021/09/13 02:17:33;;;;;;;7.53;5.70;;;15.70;99.90;;;;;;5055704;28;20045;-87
2021/09/13 02:19:59;;;;;;;8.25;5.35;;;15.70;99.90;;;;;;5074030;28;20032;-87
2021/09/13 02:22:25;;;;;;;10.40;5.95;;;15.70;99.90;;;;;;5054716;28;20020;-87
2021/09/13 02:24:50;;;;;;;8.50;5.40;;;15.70;99.90;;;;;;5054483;28;20481;-87
2021/09/13 02:27:16;;;;;;;8.77;6.10;;;15.70;99.90;;;;;;5054728;28;20044;-87
2021/09/13 02:29:41;;;;;;;9.07;6.03;;;15.80;99.90;;;;;;5071976;28;20028;-87
2021/09/13 02:32:07;;;;;;;7.82;5.93;;;15.70;99.90;;;;;;5054637;28;20020;-87
2021/09/13 02:34:33;;;;;;;9.63;6.07;;;15.70;99.90;;;;;;5072422;28;20464;-86
2021/09/13 02:36:59;;;;;;;11.35;6.32;;;15.70;99.90;;;;;;5054458;28;20025;-87
2021/09/13 02:39:24;;;;;;;10.02;6.07;;;15.70;99.90;;;;;;5054026;28;20024;-86
2021/09/13 02:41:50;;;;;;;8.05;5.80;;;15.60;99.90;;;;;;5054366;28;20025;-87
2021/09/13 02:44:17;;;;;;;8.95;6.15;;;15.70;99.90;;;;;;5054012;28;20028;-86
2021/09/13 02:46:42;;;;;;;11.43;6.53;;;15.70;99.90;;;;;;5053356;28;20051;-87
2021/09/13 02:49:08;;;;;;;9.98;6.30;;;15.60;99.90;;;;;;5053321;28;20477;-87
2021/09/13 02:51:34;;;;;;;8.93;6.18;;;15.60;99.90;;;;;;5054313;28;20024;-87
2021/09/13 02:53:59;;;;;;;7.93;6.30;;;15.60;99.90;;;;;;5053715;28;20029;-87
2021/09/13 02:56:25;;;;;;;8.75;5.45;;;15.50;99.90;;;;;;5054227;28;20035;-86
2021/09/13 02:58:50;;;;;;;8.02;5.78;;;15.50;99.90;;;;;;5053976;28;20039;-86
2021/09/13 03:01:16;;;;;;;9.25;5.55;;;15.50;99.90;;;;;;5054170;28;20093;-87
2021/09/13 03:03:45;;;;;;;11.43;6.15;;;15.50;99.90;;;;;;5054167;28;20032;-87
2021/09/13 03:06:10;;;;;;;11.23;6.72;;;15.50;99.90;;;;;;5054079;28;20032;-86
2021/09/13 03:08:36;;;;;;;7.88;5.68;;;15.50;99.90;;;;;;5054127;28;20437;-86
2021/09/13 03:11:03;;;;;;;8.55;5.95;;;15.50;99.90;;;;;;5053394;28;20066;-87
2021/09/13 03:13:29;;;;;;;8.27;6.15;;;15.50;99.90;;;;;;5053884;28;20048;-87
2021/09/13 03:15:55;;;;;;;9.23;6.00;;;15.50;99.90;;;;;;5053936;28;20517;-87
2021/09/13 03:18:21;;;;;;;12.65;6.35;;;15.50;99.90;;;;;;5054193;28;20056;-84
2021/09/13 03:20:46;;;;;;;10.30;6.45;;;15.50;99.90;;;;;;5071783;28;20032;-84
2021/09/13 03:23:12;;;;;;;10.27;5.63;;;15.40;99.90;;;;;;5053730;28;20032;-84
2021/09/13 03:25:37;;;;;;;8.07;5.82;;;15.40;99.90;;;;;;5053839;28;20025;-84
2021/09/13 03:28:04;;;;;;;8.15;5.97;;;15.40;99.90;;;;;;5054200;28;20020;-84
2021/09/13 03:30:30;;;;;;;10.38;6.68;;;15.50;99.90;;;;;;5071318;28;20477;-84
2021/09/13 03:32:55;;;;;;;10.73;6.40;;;15.40;99.90;;;;;;5071643;28;20031;-84
2021/09/13 03:35:21;;;;;;;10.07;6.10;;;15.40;99.90;;;;;;5053749;28;20552;-84
2021/09/13 03:37:46;;;;;;;7.93;5.20;;;15.40;99.90;;;;;;5053864;28;20028;-84
2021/09/13 03:40:13;;;;;;;10.05;6.25;;;15.40;99.90;;;;;;5053217;28;20031;-84
2021/09/13 03:42:38;;;;;;;8.32;6.10;;;15.30;99.90;;;;;;5053499;28;20036;-84
2021/09/13 03:45:04;;;;;;;9.02;6.22;;;15.40;99.90;;;;;;5071627;28;20035;-85
2021/09/13 03:47:30;;;;;;;10.07;6.20;;;15.40;99.90;;;;;;5053994;28;20052;-86
2021/09/13 03:49:56;;;;;;;9.75;6.13;;;15.40;99.90;;;;;;5053337;28;20048;-87
2021/09/13 03:52:21;;;;;;;10.15;6.47;;;15.40;99.90;;;;;;5053724;28;20048;-87
2021/09/13 03:54:47;;;;;;;8.02;5.97;;;15.40;99.90;;;;;;5054098;28;20029;-86
2021/09/13 03:57:12;;;;;;;8.55;5.95;;;15.40;99.90;;;;;;5055128;28;20033;-86
2021/09/13 03:59:38;;;;;;;9.77;6.38;;;15.40;99.90;;;;;;5054915;28;20044;-86
2021/09/13 04:02:04;;;;;;;11.93;6.65;;;15.40;99.90;;;;;;5055652;28;20040;-86
2021/09/13 04:04:31;;;;;;;8.60;6.28;;;15.40;99.90;;;;;;5073337;28;20048;-86
2021/09/13 04:07:34;;;;;;;9.85;5.93;;;15.40;99.90;;;;;;5057719;28;20017;-87
2021/09/13 04:12:32;;;;;;;10.25;6.63;;;15.40;99.90;;;;;;5075576;28;20032;-87
2021/09/13 04:14:58;;;;;;;9.15;6.25;;;15.30;99.90;;;;;;5075417;28;20028;-86
2021/09/13 04:17:23;;;;;;;10.32;6.20;;;15.30;99.90;;;;;;5057122;28;20388;-84
2021/09/13 04:19:49;;;;;;;10.13;6.38;;;15.30;99.90;;;;;;5074635;28;20062;-84
2021/09/13 04:22:14;;;;;;;11.40;6.40;;;15.30;99.90;;;;;;5057120;28;20024;-84
2021/09/13 04:24:40;;;;;;;8.60;6.32;;;15.30;99.90;;;;;;5057224;28;20021;-84
2021/09/13 04:27:06;;;;;;;10.07;6.25;;;15.20;99.90;;;;;;5057359;28;20519;-87
2021/09/13 04:29:31;;;;;;;9.02;6.90;;;15.20;99.90;;;;;;5056429;28;20021;-87
2021/09/13 04:31:57;;;;;;;10.80;6.63;;;15.20;99.90;;;;;;5056892;28;20107;-86
2021/09/13 04:34:22;;;;;;;8.80;5.85;;;15.10;99.90;;;;;;5057027;28;20026;-87
2021/09/13 04:36:48;;;;;;;11.02;7.53;;;15.10;99.90;;;;;;5057013;28;20461;-86
2021/09/13 04:39:14;;;;;;;10.77;6.75;;;15.10;99.90;;;;;;5056310;28;20021;-86
2021/09/13 04:41:40;;;;;;;12.30;7.22;;;15.10;99.90;;;;;;5056695;28;20120;-86
2021/09/13 04:44:06;;;;;;;11.38;7.70;;;15.10;99.90;;;;;;5056677;28;20032;-86
2021/09/13 04:46:31;;;;;;;10.60;7.28;;;15.10;99.90;;;;;;5057252;28;20028;-87
2021/09/13 04:48:57;;;;;;;11.18;7.88;;;15.10;99.90;;;;;;5056126;28;20020;-87
2021/09/13 04:51:22;;;;;;;13.70;7.32;;;15.00;99.90;;;;;;5056545;28;20484;-87
2021/09/13 04:53:49;;;;;;;9.90;6.75;;;15.00;99.90;;;;;;5056418;28;20032;-87
2021/09/13 04:56:15;;;;;;;10.30;7.38;;;15.00;99.90;;;;;;5056259;28;20450;-87
2021/09/13 04:58:41;;;;;;;9.40;7.45;;;15.00;99.90;;;;;;5056647;28;20393;-86
2021/09/13 05:01:08;;;;;;;12.60;7.93;;;15.00;99.90;;;;;;5055675;28;20029;-86
2021/09/13 05:03:34;;;;;;;11.32;7.28;;;15.00;99.90;;;;;;5074400;28;20027;-87
2021/09/13 05:06:00;;;;;;;12.23;7.07;;;15.00;99.90;;;;;;5074412;28;20070;-87
2021/09/13 05:08:26;;;;;;;13.68;7.75;;;15.00;99.90;;;;;;5056280;28;20107;-87
2021/09/13 05:10:51;;;;;;;10.30;7.80;;;15.00;99.90;;;;;;5056111;28;20121;-87
2021/09/13 05:13:17;;;;;;;11.95;7.05;;;15.00;99.90;;;;;;5056236;28;20029;-87
2021/09/13 05:15:43;;;;;;;10.82;7.68;;;15.00;99.90;;;;;;5056309;28;20028;-86
2021/09/13 05:18:08;;;;;;;10.25;7.22;;;15.00;99.90;;;;;;5055659;28;20477;-87
2021/09/13 05:20:34;;;;;;;11.10;6.82;;;15.00;99.90;;;;;;5073285;28;20035;-87
2021/09/13 05:23:00;;;;;;;9.88;6.90;;;14.90;99.90;;;;;;5056162;28;20579;-87
2021/09/13 05:25:25;;;;;;;10.95;6.57;;;14.90;99.90;;;;;;5056009;28;20521;-87
2021/09/13 05:27:51;;;;;;;10.68;7.22;;;14.90;99.90;;;;;;5056347;28;20029;-86
2021/09/13 05:30:17;;;;;;;18.63;13.23;;;14.90;99.90;;;;;;5055323;28;20021;-86
2021/09/13 05:32:42;;;;;;;13.32;7.97;;;14.90;99.90;;;;;;5055830;28;20021;-86
2021/09/13 05:35:08;;;;;;;10.23;7.03;;;14.90;99.90;;;;;;5055905;28;20063;-86
2021/09/13 05:37:34;;;;;;;10.02;7.20;;;14.90;99.90;;;;;;5055616;28;20028;-86
2021/09/13 05:40:00;;;;;;;11.90;7.18;;;14.90;99.90;;;;;;5072984;28;20082;-86
2021/09/13 05:42:26;;;;;;;9.90;6.85;;;14.90;99.90;;;;;;5055566;28;20035;-87
2021/09/13 05:44:52;;;;;;;11.40;7.00;;;14.90;99.90;;;;;;5074834;28;20029;-86
2021/09/13 05:47:18;;;;;;;11.30;7.03;;;14.90;99.90;;;;;;5057016;28;20021;-85
2021/09/13 05:49:44;;;;;;;11.48;7.78;;;14.90;99.90;;;;;;5056019;28;20028;-86
2021/09/13 05:52:09;;;;;;;14.07;8.23;;;15.00;99.90;;;;;;5056603;28;20469;-86
2021/09/13 05:54:35;;;;;;;13.75;8.07;;;15.00;99.90;;;;;;5056289;28;20017;-86
2021/09/13 05:57:01;;;;;;;10.50;8.10;;;15.00;99.90;;;;;;5056203;28;20064;-86
2021/09/13 05:59:26;;;;;;;14.13;8.73;;;15.00;99.90;;;;;;5055555;28;20025;-86
2021/09/13 06:01:52;;;;;;;12.57;7.95;;;15.00;99.90;;;;;;5056202;28;20016;-86
2021/09/13 06:04:18;;;;;;;14.15;7.72;;;15.10;99.90;;;;;;5055958;28;20048;-86
2021/09/13 06:06:44;;;;;;;13.02;8.25;;;15.10;99.90;;;;;;5056168;28;20082;-86
2021/09/13 06:09:10;;;;;;;11.75;7.78;;;15.10;99.90;;;;;;5074141;28;20020;-86
2021/09/13 06:11:36;;;;;;;12.18;7.93;;;15.10;99.90;;;;;;5055761;28;20024;-86
2021/09/13 06:14:02;;;;;;;11.35;7.45;;;15.10;99.90;;;;;;5055595;28;20067;-85
2021/09/13 06:16:28;;;;;;;13.60;7.22;;;15.20;99.90;;;;;;5073326;28;20027;-86
2021/09/13 06:18:53;;;;;;;13.32;7.50;;;15.20;99.90;;;;;;5055224;28;20028;-86
2021/09/13 06:21:19;;;;;;;14.88;8.68;;;15.20;99.90;;;;;;5055615;28;20021;-86
2021/09/13 06:23:45;;;;;;;13.75;9.05;;;15.20;99.90;;;;;;5073446;28;20020;-85
2021/09/13 06:26:15;;;;;;;15.85;8.32;;;15.20;99.90;;;;;;5055545;28;20067;-83
2021/09/13 06:28:40;;;;;;;13.88;8.32;;;15.30;99.90;;;;;;5072770;28;20052;-83
2021/09/13 06:31:07;;;;;;;11.30;8.05;;;15.30;99.90;;;;;;5054861;28;20044;-83
2021/09/13 06:33:33;;;;;;;11.02;7.80;;;15.30;99.90;;;;;;5055648;28;20419;-83
2021/09/13 06:35:59;;;;;;;11.90;8.43;;;15.30;99.90;;;;;;5073499;28;20101;-83
2021/09/13 06:38:25;;;;;;;14.00;8.40;;;15.40;99.90;;;;;;5054996;28;20025;-83
2021/09/13 06:40:51;;;;;;;16.70;8.50;;;15.40;99.90;;;;;;5054761;28;20068;-86
2021/09/13 06:43:18;;;;;;;11.45;8.57;;;15.50;99.90;;;;;;5055028;28;20067;-86
2021/09/13 06:45:45;;;;;;;16.15;8.82;;;15.60;99.90;;;;;;5055322;28;20028;-85
2021/09/13 06:48:15;;;;;;;15.27;8.57;;;15.60;99.90;;;;;;5055215;28;20108;-86
2021/09/13 06:50:44;;;;;;;13.75;9.43;;;15.70;99.90;;;;;;5054864;28;20020;-86
2021/09/13 06:53:10;;;;;;;16.77;10.00;;;15.70;99.90;;;;;;5054711;28;20024;-86
2021/09/13 06:55:37;;;;;;;15.68;9.15;;;15.80;99.90;;;;;;5073148;28;20076;-86
2021/09/13 06:58:05;;;;;;;15.30;9.57;;;15.90;99.90;;;;;;5054937;28;20435;-86
2021/09/13 07:00:31;;;;;;;12.95;8.60;;;15.90;99.90;;;;;;5054615;28;20384;-86
2021/09/13 07:02:57;;;;;;;16.25;9.20;;;16.00;99.90;;;;;;5054829;28;20063;-86
2021/09/13 07:05:23;;;;;;;13.05;8.57;;;16.00;99.90;;;;;;5055210;28;20056;-86
2021/09/13 07:07:48;;;;;;;14.57;9.10;;;16.10;99.90;;;;;;5072993;28;20021;-83
2021/09/13 07:10:17;;;;;;;18.15;11.18;;;16.10;99.90;;;;;;5054800;28;20044;-83
2021/09/13 07:12:43;;;;;;;20.02;10.50;;;16.20;99.90;;;;;;5072547;28;20027;-83
2021/09/13 07:15:10;;;;;;;15.35;10.32;;;16.20;99.90;;;;;;5054710;28;20074;-83
2021/09/13 07:17:35;;;;;;;18.98;11.23;;;16.20;99.90;;;;;;5054573;28;20031;-84
2021/09/13 07:20:01;;;;;;;16.13;9.32;;;16.20;99.90;;;;;;5054376;28;20024;-83
2021/09/13 07:22:26;;;;;;;15.13;9.70;;;16.30;99.90;;;;;;5055179;28;20025;-83
2021/09/13 07:24:52;;;;;;;15.18;9.25;;;16.30;99.90;;;;;;5072329;28;20469;-83
2021/09/13 07:27:18;;;;;;;21.02;10.57;;;16.40;99.90;;;;;;5054567;28;20013;-83
2021/09/13 07:29:43;;;;;;;18.35;10.35;;;16.40;99.90;;;;;;5071070;28;20021;-83
2021/09/13 07:32:09;;;;;;;13.30;8.10;;;16.40;99.90;;;;;;5071057;28;20024;-83
2021/09/13 07:34:36;;;;;;;18.27;7.53;;;16.50;99.90;;;;;;5054624;28;20059;-83
2021/09/13 07:37:02;;;;;;;12.00;6.25;;;16.60;99.90;;;;;;5072759;28;20104;-83
2021/09/13 07:39:29;;;;;;;14.57;6.88;;;16.60;99.90;;;;;;5054312;28;20021;-83
2021/09/13 07:41:56;;;;;;;8.57;5.90;;;16.60;99.90;;;;;;5076735;28;20035;-83
2021/09/13 07:44:22;;;;;;;10.70;4.90;;;16.60;99.90;;;;;;5058451;28;20040;-84
2021/09/13 07:46:48;;;;;;;8.93;4.47;;;16.60;99.90;;;;;;5077215;28;20021;-83
2021/09/13 07:49:14;;;;;;;7.57;4.00;;;16.60;99.90;;;;;;5058241;28;20028;-83
2021/09/13 07:51:39;;;;;;;9.13;4.32;;;16.70;99.90;;;;;;5058610;28;20087;-83
2021/09/13 07:54:06;;;;;;;9.70;3.70;;;16.70;99.90;;;;;;5058506;28;20020;-83
2021/09/13 07:56:33;;;;;;;6.82;3.55;;;16.70;99.90;;;;;;5058376;28;20025;-84
2021/09/13 07:59:00;;;;;;;6.82;3.00;;;16.80;99.90;;;;;;5058797;28;20025;-83
2021/09/13 08:01:26;;;;;;;7.88;2.90;;;16.80;99.90;;;;;;5058897;28;20028;-83
2021/09/13 08:03:52;;;;;;;7.88;2.70;;;16.80;99.90;;;;;;5058334;28;20393;-83
2021/09/13 08:06:17;;;;;;;7.65;3.13;;;16.80;99.90;;;;;;5058331;28;20115;-83
2021/09/13 08:08:43;;;;;;;11.05;3.67;;;16.80;99.90;;;;;;5076998;28;20462;-83
2021/09/13 08:11:09;;;;;;;7.93;2.95;;;16.90;99.90;;;;;;5076800;28;20020;-83
2021/09/13 08:13:39;;;;;;;7.13;2.70;;;16.90;99.90;;;;;;5058697;28;20027;-83
2021/09/13 08:16:05;;;;;;;6.70;2.90;;;16.90;99.90;;;;;;5058236;28;20033;-83
2021/09/13 08:18:30;;;;;;;7.78;3.47;;;16.90;99.90;;;;;;5076181;28;20020;-83
2021/09/13 08:20:56;;;;;;;8.18;3.95;;;16.90;99.90;;;;;;5057490;28;20086;-83
2021/09/13 08:23:22;;;;;;;10.30;4.22;;;17.00;99.90;;;;;;5057817;28;20025;-83
2021/09/13 08:25:47;;;;;;;13.10;5.43;;;17.00;99.90;;;;;;5057709;28;20025;-83
2021/09/13 08:28:17;;;;;;;9.75;4.97;;;17.00;99.90;;;;;;5057972;28;20027;-83
2021/09/13 08:30:43;;;;;;;10.43;5.20;;;17.10;99.90;;;;;;5075622;28;20028;-83
2021/09/13 08:33:09;;;;;;;8.75;4.32;;;17.10;99.90;;;;;;5076024;28;20016;-83
2021/09/13 08:35:34;;;;;;;8.05;4.53;;;17.10;99.90;;;;;;5057858;28;20103;-83
2021/09/13 08:38:01;;;;;;;10.32;5.93;;;17.10;99.90;;;;;;5075704;28;20028;-83
2021/09/13 08:40:27;;;;;;;9.93;6.60;;;17.20;99.90;;;;;;5057424;28;20059;-83
2021/09/13 08:42:54;;;;;;;11.07;6.10;;;17.20;99.90;;;;;;5057746;28;20028;-83
2021/09/13 08:45:27;;;;;;;10.38;5.13;;;17.20;99.90;;;;;;5058069;28;20028;-83
2021/09/13 08:48:02;;;;;;;9.75;6.60;;;17.20;99.90;;;;;;5057795;28;20074;-83
2021/09/13 08:50:52;;;;;;;9.70;5.78;;;17.30;99.90;;;;;;5057516;28;20370;-83
2021/09/13 08:53:17;;;;;;;10.30;7.10;;;17.30;99.90;;;;;;5074122;28;20028;-83
2021/09/13 08:55:44;;;;;;;11.73;7.40;;;17.30;99.90;;;;;;5057486;28;20111;-83
2021/09/13 08:58:13;;;;;;;11.45;7.85;;;17.30;99.90;;;;;;5057846;28;20128;-84
2021/09/13 09:00:42;;;;;;;13.88;8.50;;;17.30;99.90;;;;;;5057620;28;20480;-83
2021/09/13 09:03:09;;;;;;;10.35;7.28;;;17.40;99.90;;;;;;5057293;28;20111;-83
2021/09/13 09:05:44;;;;;;;12.60;7.53;;;17.30;99.90;;;;;;5075784;28;20029;-83
2021/09/13 09:08:12;;;;;;;10.15;6.70;;;17.40;99.90;;;;;;5057762;28;20025;-83
2021/09/13 09:10:39;;;;;;;9.95;7.22;;;17.40;99.90;;;;;;5057367;28;20119;-84
2021/09/13 09:13:13;;;;;;;16.77;7.70;;;17.50;99.90;;;;;;5057887;28;20032;-83
2021/09/13 09:15:56;;;;;;;11.38;7.50;;;17.50;99.90;;;;;;5057464;28;20025;-83
2021/09/13 09:18:24;;;;;;;12.05;7.88;;;17.50;99.90;;;;;;5057099;28;20059;-83
2021/09/13 09:20:50;;;;;;;12.40;8.10;;;17.50;99.90;;;;;;5057305;28;20024;-83
2021/09/13 09:23:16;;;;;;;10.90;7.65;;;17.60;99.90;;;;;;5057302;28;20033;-83
2021/09/13 09:25:41;;;;;;;12.15;7.22;;;17.60;99.90;;;;;;5056945;28;20029;-83
2021/09/13 09:28:15;;;;;;;8.77;6.85;;;17.60;99.90;;;;;;5075586;28;20024;-84
2021/09/13 09:30:43;;;;;;;12.27;7.38;;;17.60;99.90;;;;;;5056933;28;20029;-84
2021/09/13 09:33:17;;;;;;;9.50;5.93;;;17.60;99.90;;;;;;5056871;28;20021;-83
2021/09/13 09:35:55;;;;;;;10.43;5.70;;;17.70;99.90;;;;;;5075448;28;20081;-83
2021/09/13 09:38:39;;;;;;;7.68;4.90;;;17.70;99.90;;;;;;5057367;28;20133;-84
2021/09/13 09:41:17;;;;;;;8.65;5.45;;;17.70;99.90;;;;;;5056463;28;20039;-83
2021/09/13 09:44:04;;;;;;;8.07;4.90;;;17.70;99.90;;;;;;5057099;28;20028;-84
2021/09/13 09:46:44;;;;;;;7.25;4.78;;;17.80;99.90;;;;;;5075287;28;20358;-84
2021/09/13 09:49:09;;;;;;;8.15;4.85;;;17.80;99.90;;;;;;5074378;28;20069;-83
2021/09/13 09:51:37;;;;;;;8.30;5.28;;;17.90;99.90;;;;;;5057081;28;20483;-84
2021/09/13 09:54:17;;;;;;;8.25;4.95;;;17.90;99.90;;;;;;5057492;28;20020;-84
2021/09/13 09:56:56;;;;;;;8.18;5.03;;;17.90;99.90;;;;;;5075551;28;20028;-83
2021/09/13 09:59:21;;;;;;;7.47;4.90;;;17.90;99.90;;;;;;5075319;28;20035;-83
2021/09/13 10:01:50;;;;;;;10.18;5.80;;;17.90;99.90;;;;;;5075761;28;20384;-83
2021/09/13 10:04:22;;;;;;;8.25;5.38;;;17.90;99.90;;;;;;5057728;28;20033;-83
2021/09/13 10:06:49;;;;;;;12.68;6.07;;;17.90;99.90;;;;;;5058399;28;20051;-84
2021/09/13 10:09:15;;;;;;;7.65;5.18;;;17.90;99.90;;;;;;5058025;28;20035;-83
2021/09/13 10:11:43;;;;;;;9.23;5.72;;;17.90;99.90;;;;;;5076450;28;20024;-83
2021/09/13 10:14:12;;;;;;;8.27;5.20;;;18.00;99.90;;;;;;5057961;28;20460;-84
2021/09/13 10:16:39;;;;;;;8.93;4.85;;;18.00;99.90;;;;;;5076372;28;20568;-84
2021/09/13 10:19:06;;;;;;;7.45;4.40;;;18.00;99.90;;;;;;5075798;28;20028;-84
2021/09/13 10:21:32;;;;;;;7.68;4.00;;;18.00;99.90;;;;;;5057937;28;20081;-83
2021/09/13 10:23:59;;;;;;;6.70;4.03;;;18.10;98.50;;;;;;5057430;28;20385;-84
2021/09/13 10:26:25;;;;;;;5.35;3.97;;;18.10;97.40;;;;;;5075118;28;20020;-84
2021/09/13 10:29:03;;;;;;;5.80;3.70;;;18.10;96.40;;;;;;5057150;28;20035;-83
2021/09/13 10:32:06;;;;;;;9.40;4.03;;;18.20;96.50;;;;;;5056975;28;20016;-83
2021/09/13 10:34:49;;;;;;;5.85;4.05;;;18.20;96.20;;;;;;5075083;28;20039;-84
2021/09/13 10:37:20;;;;;;;8.13;4.72;;;18.30;96.10;;;;;;5057948;28;20025;-83
2021/09/13 10:40:14;;;;;;;8.10;6.13;;;18.30;96.20;;;;;;5074640;28;20016;-84
2021/09/13 10:42:49;;;;;;;9.02;5.68;;;18.40;96.10;;;;;;5074687;28;20031;-84
2021/09/13 10:45:20;;;;;;;7.88;5.55;;;18.40;96.20;;;;;;5057340;28;20028;-83
2021/09/13 10:47:54;;;;;;;7.35;4.68;;;18.50;96.20;;;;;;5075121;28;20054;-84
2021/09/13 10:50:22;;;;;;;9.05;5.63;;;18.50;96.30;;;;;;5056841;28;20063;-83
2021/09/13 10:52:49;;;;;;;9.88;5.63;;;18.50;96.20;;;;;;5074761;28;20073;-83
2021/09/13 10:55:19;;;;;;;10.65;7.00;;;18.60;96.10;;;;;;5074302;28;20405;-84
2021/09/13 10:57:51;;;;;;;16.77;10.10;;;18.70;96.30;;;;;;5056520;28;20480;-84
2021/09/13 11:00:39;;;;;;;13.50;8.68;;;18.70;96.70;;;;;;5075689;28;20056;-84
2021/09/13 11:06:26;;;;;;;12.25;8.05;;;18.80;96.10;;;;;;5074622;28;20033;-84
2021/09/13 11:09:02;;;;;;;11.80;7.97;;;18.80;96.20;;;;;;5056082;28;20020;-83
2021/09/13 11:11:35;;;;;;;11.02;8.02;;;18.90;96.00;;;;;;5057482;28;20028;-83
2021/09/13 11:14:16;;;;;;;14.23;9.27;;;18.80;96.00;;;;;;5059896;28;20040;-83
2021/09/13 11:17:03;;;;;;;11.98;7.90;;;18.90;96.00;;;;;;5076100;28;20031;-83
2021/09/13 11:19:30;;;;;;;13.45;8.35;;;18.90;96.20;;;;;;5057012;28;20025;-83
2021/09/13 11:22:04;;;;;;;9.15;6.88;;;18.90;96.30;;;;;;5075489;28;20024;-84
2021/09/13 11:24:37;;;;;;;11.27;7.65;;;18.90;96.30;;;;;;5056473;28;20043;-84
2021/09/13 11:27:04;;;;;;;9.73;6.72;;;18.90;96.40;;;;;;5054556;28;20393;-83
2021/09/13 11:29:41;;;;;;;10.98;7.22;;;19.00;96.20;;;;;;5071949;28;20029;-84
2021/09/13 11:32:09;;;;;;;10.93;7.35;;;19.00;96.10;;;;;;5054259;28;20032;-84
2021/09/13 11:34:34;;;;;;;10.38;7.30;;;19.00;96.20;;;;;;5072588;28;20323;-83
2021/09/13 11:37:08;;;;;;;13.70;7.90;;;19.00;96.20;;;;;;5054317;28;20396;-84
2021/09/13 11:39:42;;;;;;;11.50;7.68;;;19.10;96.00;;;;;;5053859;28;20119;-83
2021/09/13 11:42:11;;;;;;;10.73;7.53;;;19.00;96.10;;;;;;5054363;28;20036;-84
2021/09/13 11:44:46;;;;;;;12.60;8.15;;;19.00;96.00;;;;;;5073620;23;20049;-87
2021/09/13 11:47:14;;;;;;;12.18;8.20;;;19.10;96.10;;;;;;5033986;28;20029;-86
2021/09/13 11:49:42;;;;;;;12.97;8.33;;;19.20;95.70;;;;;;5051466;28;20049;-85
2021/09/13 11:52:12;;;;;;;14.07;8.40;;;19.30;95.60;;;;;;5051760;28;20075;-87
2021/09/13 11:54:44;;;;;;;14.38;8.45;;;19.30;95.70;;;;;;5034319;28;20025;-85
2021/09/13 11:57:44;;;;;;;13.40;7.65;;;19.40;95.40;;;;;;5052067;28;20029;-85
2021/09/13 12:00:13;;;;;;;11.80;7.88;;;19.40;95.50;;;;;;5026664;28;20386;-86
2021/09/13 12:02:41;;;;;;;13.20;8.55;;;19.40;95.60;;;;;;5033960;28;20032;-86
2021/09/13 12:05:16;;;;;;;15.32;8.65;;;19.50;95.70;;;;;;5033947;28;20032;-86
2021/09/13 12:07:45;;;;;;;13.63;8.52;;;19.40;95.60;;;;;;5034000;28;20027;-86
2021/09/13 12:10:12;;;;;;;11.48;7.43;;;19.40;94.80;;;;;;5033317;28;20029;-86
2021/09/13 12:12:47;;;;;;;11.32;8.13;;;19.50;94.70;;;;;;5033931;28;20027;-86
2021/09/13 12:15:14;;;;;;;11.10;7.40;;;19.40;94.70;;;;;;5033520;28;20068;-86
2021/09/13 12:17:46;;;;;;;10.20;8.18;;;19.40;95.00;;;;;;5033732;28;20032;-85
2021/09/13 12:20:29;;;;;;;12.88;8.45;;;19.40;95.30;;;;;;5051012;28;20079;-85
2021/09/13 12:23:02;;;;;;;12.35;8.43;;;19.40;95.30;;;;;;5033664;28;20032;-86
2021/09/13 12:25:29;;;;;;;15.52;8.02;;;19.40;95.40;;;;;;5033533;28;20021;-86
2021/09/13 12:28:01;;;;;;;13.63;8.85;;;19.40;95.40;;;;;;5035508;28;20017;-86
2021/09/13 12:30:29;;;;;;;11.32;8.73;;;19.40;95.30;;;;;;5036652;28;20135;-85
2021/09/13 12:33:03;;;;;;;13.00;8.82;;;19.30;95.10;;;;;;5036856;28;20044;-86
2021/09/13 12:35:36;;;;;;;14.32;10.32;;;19.40;95.10;;;;;;5055182;28;20060;-86
2021/09/13 12:38:04;;;;;;;14.85;9.98;;;19.40;94.70;;;;;;5037060;28;20083;-86
2021/09/13 12:40:30;;;;;;;13.18;9.10;;;19.40;94.70;;;;;;5036704;28;20025;-86
2021/09/13 12:42:57;;;;;;;14.63;9.80;;;19.40;95.00;;;;;;5036739;28;20059;-86
2021/09/13 12:45:34;;;;;;;13.73;9.15;;;19.40;94.90;;;;;;5036682;28;20123;-86
2021/09/13 12:48:01;;;;;;;14.43;9.65;;;19.40;95.00;;;;;;5036994;28;20075;-86
2021/09/13 12:50:40;;;;;;;14.27;9.30;;;19.40;95.00;;;;;;5036426;28;20021;-86